Time;durP1;ratioP1;P1;durP2;ratioP2;P2;SDS_P1;SDS_P2;PMS_P1;PMS_P2;Temp;Humidity;BMP_temperature;BMP_pressure;BME280_temperature;BME280_humidity;BME280_pressure;Samples;Min_cycle;Max_cycle;Signal;HPM_P1;HPM_P2
2021/07/11 00:01:56;;;;;;;6.57;3.25;;;18.50;99.90;;;;;;5026536;28;20776;-66
2021/07/11 00:04:26;;;;;;;5.60;3.83;;;18.60;99.90;;;;;;5026066;28;20029;-71
2021/07/11 00:06:52;;;;;;;5.40;3.33;;;18.60;99.90;;;;;;5056281;28;20049;-67
2021/07/11 00:09:20;;;;;;;6.10;3.95;;;18.60;99.90;;;;;;5025825;28;20044;-66
2021/07/11 00:11:48;;;;;;;7.57;3.70;;;18.60;99.90;;;;;;5026754;28;20155;-66
2021/07/11 00:14:16;;;;;;;6.07;3.30;;;18.60;99.90;;;;;;5027129;28;20044;-66
2021/07/11 00:16:44;;;;;;;7.43;3.70;;;18.60;99.90;;;;;;5026147;28;20132;-67
2021/07/11 00:19:20;;;;;;;9.39;4.31;;;18.50;99.90;;;;;;4988060;28;10000972;-67
2021/07/11 00:21:47;;;;;;;6.60;4.88;;;18.50;99.90;;;;;;5026828;28;20229;-67
2021/07/11 00:24:15;;;;;;;5.63;4.22;;;18.50;99.90;;;;;;5026937;28;20033;-68
2021/07/11 00:26:43;;;;;;;6.22;4.18;;;18.50;99.90;;;;;;5026651;28;20083;-67
2021/07/11 00:29:11;;;;;;;6.25;4.10;;;18.50;99.90;;;;;;5025976;28;20022;-67
2021/07/11 00:31:39;;;;;;;5.35;3.90;;;18.50;99.90;;;;;;5024792;28;20064;-67
2021/07/11 00:34:07;;;;;;;5.70;4.18;;;18.60;99.90;;;;;;5024859;28;20772;-67
2021/07/11 00:36:32;;;;;;;7.13;4.32;;;18.50;99.90;;;;;;5024514;28;20033;-67
2021/07/11 00:38:58;;;;;;;7.72;4.50;;;18.40;99.90;;;;;;5026921;28;20033;-67
2021/07/11 00:41:24;;;;;;;5.82;4.07;;;18.50;99.90;;;;;;5026670;28;20480;-67
2021/07/11 00:43:50;;;;;;;6.43;4.03;;;18.40;99.90;;;;;;5027799;28;20039;-67
2021/07/11 00:46:16;;;;;;;7.80;4.47;;;18.40;99.90;;;;;;5028796;28;20560;-67
2021/07/11 00:48:44;;;;;;;7.97;4.80;;;18.40;99.90;;;;;;5025842;28;20447;-67
2021/07/11 00:51:10;;;;;;;7.57;5.20;;;18.30;99.90;;;;;;5059344;28;20033;-67
2021/07/11 00:53:36;;;;;;;8.63;5.40;;;18.40;99.90;;;;;;5010711;28;20116;-67
2021/07/11 00:56:01;;;;;;;6.75;5.05;;;18.30;99.90;;;;;;5060841;28;20050;-66
2021/07/11 00:58:29;;;;;;;7.25;5.00;;;18.40;99.90;;;;;;5027746;28;20340;-66
2021/07/11 01:01:00;;;;;;;6.75;5.70;;;18.40;99.90;;;;;;5026491;28;20048;-67
2021/07/11 01:03:33;;;;;;;7.70;6.20;;;18.40;99.90;;;;;;5026558;28;20040;-67
2021/07/11 01:06:02;;;;;;;6.30;4.68;;;18.30;99.90;;;;;;5026964;28;20030;-67
2021/07/11 01:08:42;;;;;;;6.85;6.15;;;18.40;99.90;;;;;;5027507;28;20036;-67
2021/07/11 01:11:09;;;;;;;9.88;6.72;;;18.40;99.90;;;;;;5000392;28;20029;-67
2021/07/11 01:13:36;;;;;;;8.60;7.45;;;18.30;99.90;;;;;;5043192;28;20433;-67
2021/07/11 01:16:12;;;;;;;8.88;6.53;;;18.30;99.90;;;;;;5042284;28;20025;-67
2021/07/11 01:18:39;;;;;;;8.38;7.47;;;18.30;99.90;;;;;;5002227;28;20060;-66
2021/07/11 01:21:13;;;;;;;9.30;6.90;;;18.10;99.90;;;;;;5026485;28;20099;-75
2021/07/11 01:23:47;;;;;;;9.02;7.38;;;18.00;99.90;;;;;;4677466;28;10000487;-74
2021/07/11 01:26:17;;;;;;;8.80;7.30;;;18.10;99.90;;;;;;5024757;28;20025;-74
2021/07/11 01:28:43;;;;;;;10.13;9.13;;;18.00;99.90;;;;;;5026650;28;20037;-74
2021/07/11 01:31:09;;;;;;;9.45;7.90;;;18.00;99.90;;;;;;5026724;28;20029;-74
2021/07/11 01:33:41;;;;;;;10.10;9.10;;;18.00;99.90;;;;;;5025886;28;20450;-74
2021/07/11 01:36:11;;;;;;;9.05;8.10;;;18.00;99.90;;;;;;5025978;28;20037;-73
2021/07/11 01:38:37;;;;;;;9.07;7.68;;;18.10;99.90;;;;;;5024386;28;20033;-74
2021/07/11 01:41:08;;;;;;;9.98;7.40;;;18.10;99.90;;;;;;5009899;28;20510;-73
2021/07/11 01:43:36;;;;;;;9.00;7.82;;;18.10;99.90;;;;;;5006772;28;20025;-74
2021/07/11 01:46:02;;;;;;;10.20;9.10;;;18.20;99.90;;;;;;5025753;28;20033;-73
2021/07/11 01:48:31;;;;;;;10.65;7.88;;;18.20;99.90;;;;;;5008188;28;20121;-74
2021/07/11 01:50:57;;;;;;;9.45;8.30;;;18.10;99.90;;;;;;5024952;28;20025;-74
2021/07/11 01:53:32;;;;;;;9.82;8.23;;;18.20;99.90;;;;;;5008054;28;20064;-74
2021/07/11 01:56:03;;;;;;;11.10;9.27;;;18.20;99.90;;;;;;5024831;28;20047;-74
2021/07/11 01:58:28;;;;;;;9.75;8.02;;;18.20;99.90;;;;;;5042031;28;20048;-74
2021/07/11 02:00:54;;;;;;;9.60;8.18;;;18.20;99.90;;;;;;5025185;28;20029;-73
2021/07/11 02:03:22;;;;;;;9.90;7.53;;;18.10;99.90;;;;;;5027304;28;20075;-73
2021/07/11 02:05:50;;;;;;;11.05;8.65;;;18.10;99.90;;;;;;5025549;28;20351;-74
2021/07/11 02:08:18;;;;;;;8.93;7.68;;;18.10;99.90;;;;;;5023760;28;20026;-73
2021/07/11 02:10:46;;;;;;;10.30;7.72;;;18.10;99.90;;;;;;5023560;28;20029;-73
2021/07/11 02:13:17;;;;;;;9.55;7.80;;;18.10;99.90;;;;;;5026857;28;20168;-74
2021/07/11 02:15:46;;;;;;;7.80;5.50;;;18.00;99.90;;;;;;5019400;28;20493;-74
2021/07/11 02:18:13;;;;;;;9.02;6.32;;;18.00;99.90;;;;;;4992918;28;20037;-73
2021/07/11 02:20:39;;;;;;;8.07;5.07;;;18.00;99.90;;;;;;5025914;28;20029;-73
2021/07/11 02:23:05;;;;;;;7.25;5.07;;;17.90;99.90;;;;;;5023906;28;20041;-73
2021/07/11 02:25:32;;;;;;;10.15;5.68;;;17.90;99.90;;;;;;5024458;28;20060;-73
2021/07/11 02:28:01;;;;;;;7.53;5.55;;;18.00;99.90;;;;;;5023745;28;20033;-73
2021/07/11 02:30:36;;;;;;;6.30;4.10;;;18.00;99.90;;;;;;5023150;28;20041;-73
2021/07/11 02:33:10;;;;;;;5.85;4.38;;;17.90;99.90;;;;;;5024349;28;20037;-74
2021/07/11 02:35:38;;;;;;;7.03;5.00;;;17.90;99.90;;;;;;5025387;28;20029;-74
2021/07/11 02:38:06;;;;;;;6.85;4.20;;;17.90;99.90;;;;;;5024834;28;20049;-73
2021/07/11 02:40:33;;;;;;;5.13;3.65;;;17.80;99.90;;;;;;5040552;28;20029;-73
2021/07/11 02:43:00;;;;;;;6.90;4.30;;;17.80;99.90;;;;;;5024522;28;20056;-73
2021/07/11 02:45:26;;;;;;;9.85;4.55;;;17.80;99.90;;;;;;5025885;28;20016;-73
2021/07/11 02:47:54;;;;;;;7.50;4.10;;;17.80;99.90;;;;;;5023191;28;20048;-73
2021/07/11 02:50:20;;;;;;;7.25;3.63;;;17.90;99.90;;;;;;5023946;28;20493;-73
2021/07/11 02:52:50;;;;;;;5.95;3.60;;;17.90;99.90;;;;;;5006519;28;20033;-73
2021/07/11 02:55:19;;;;;;;7.03;3.70;;;17.80;99.90;;;;;;5023735;28;20041;-73
2021/07/11 02:57:47;;;;;;;6.63;3.63;;;17.80;99.90;;;;;;5023581;28;20053;-73
2021/07/11 03:00:13;;;;;;;9.07;3.50;;;17.70;99.90;;;;;;5006405;28;20529;-74
2021/07/11 03:02:39;;;;;;;7.30;4.25;;;17.70;99.90;;;;;;5025040;28;20036;-74
2021/07/11 03:05:07;;;;;;;6.90;3.80;;;17.70;99.90;;;;;;5056864;28;20021;-73
2021/07/11 03:07:33;;;;;;;6.93;4.22;;;17.70;99.90;;;;;;5024889;28;20064;-73
2021/07/11 03:09:58;;;;;;;6.72;4.10;;;17.60;99.90;;;;;;5024941;28;20905;-74
2021/07/11 03:12:24;;;;;;;6.40;4.75;;;17.60;99.90;;;;;;5023652;28;20088;-74
2021/07/11 03:14:50;;;;;;;6.97;4.30;;;17.50;99.90;;;;;;5024156;28;20050;-74
2021/07/11 03:17:20;;;;;;;7.43;4.07;;;17.50;99.90;;;;;;4995962;28;20187;-74
2021/07/11 03:19:46;;;;;;;5.85;4.25;;;17.60;99.90;;;;;;5024829;28;20068;-74
2021/07/11 03:22:15;;;;;;;6.60;3.88;;;17.60;99.90;;;;;;5004825;28;20449;-74
2021/07/11 03:24:43;;;;;;;10.10;3.22;;;17.60;99.90;;;;;;5023861;28;20120;-74
2021/07/11 03:27:11;;;;;;;6.15;4.00;;;17.60;99.90;;;;;;5007920;28;20367;-74
2021/07/11 03:29:51;;;;;;;7.60;3.53;;;17.60;99.90;;;;;;5024001;28;20026;-74
2021/07/11 03:32:20;;;;;;;9.85;3.47;;;17.60;99.90;;;;;;5010472;28;20037;-74
2021/07/11 03:34:48;;;;;;;6.45;3.70;;;17.70;99.90;;;;;;5026298;28;20067;-74
2021/07/11 03:37:14;;;;;;;6.75;3.95;;;17.60;99.90;;;;;;5026834;28;20033;-74
2021/07/11 03:39:42;;;;;;;6.15;4.00;;;17.60;99.90;;;;;;5026977;28;20083;-74
2021/07/11 03:42:10;;;;;;;7.57;3.92;;;17.60;99.90;;;;;;5027091;28;20439;-74
2021/07/11 03:44:42;;;;;;;5.78;3.90;;;17.60;99.90;;;;;;5060790;28;20033;-74
2021/07/11 03:47:09;;;;;;;;;;;17.60;99.90;;;;;;5010085;28;20060;-74
2021/07/11 03:49:35;;;;;;;5.95;3.80;;;17.60;99.90;;;;;;5011162;28;19917;-74
2021/07/11 03:52:03;;;;;;;6.15;3.63;;;17.50;99.90;;;;;;5013843;28;20022;-74
2021/07/11 03:54:30;;;;;;;7.72;3.47;;;17.60;99.90;;;;;;5027155;28;20041;-74
2021/07/11 03:56:55;;;;;;;5.68;4.03;;;17.60;99.90;;;;;;5028312;28;20718;-74
2021/07/11 03:59:21;;;;;;;8.35;3.72;;;17.60;99.90;;;;;;5026488;28;20048;-74
2021/07/11 04:01:52;;;;;;;5.75;3.70;;;17.60;99.90;;;;;;5009801;28;20033;-74
2021/07/11 04:04:21;;;;;;;6.65;3.80;;;17.60;99.90;;;;;;5026859;28;20075;-74
2021/07/11 04:06:50;;;;;;;6.97;4.32;;;17.60;99.90;;;;;;5027249;28;20574;-74
2021/07/11 04:09:23;;;;;;;6.72;3.22;;;17.60;99.90;;;;;;5010526;28;20474;-74
2021/07/11 04:11:48;;;;;;;12.63;3.40;;;17.60;99.90;;;;;;5031042;28;20056;-74
2021/07/11 04:14:23;;;;;;;7.80;3.20;;;17.60;99.90;;;;;;5027903;28;20125;-74
2021/07/11 04:16:54;;;;;;;7.35;3.63;;;17.70;99.90;;;;;;5010585;28;20044;-74
2021/07/11 04:19:24;;;;;;;7.70;3.50;;;17.70;99.90;;;;;;5017220;28;20117;-74
2021/07/11 04:21:56;;;;;;;6.40;3.90;;;17.70;99.90;;;;;;5009878;28;20033;-74
2021/07/11 04:24:21;;;;;;;6.97;3.28;;;17.70;99.90;;;;;;5025496;28;20057;-74
2021/07/11 04:26:50;;;;;;;6.82;3.40;;;17.70;99.90;;;;;;5025710;28;20163;-74
2021/07/11 04:29:16;;;;;;;5.95;3.58;;;17.70;99.90;;;;;;5059961;28;20039;-74
2021/07/11 04:31:46;;;;;;;11.02;4.70;;;17.70;99.90;;;;;;5008916;28;20136;-74
2021/07/11 04:34:27;;;;;;;7.45;3.88;;;17.70;99.90;;;;;;5041670;28;20071;-74
2021/07/11 04:36:54;;;;;;;8.07;3.53;;;17.70;99.90;;;;;;5026711;28;20025;-74
2021/07/11 04:39:20;;;;;;;7.45;3.55;;;17.70;99.90;;;;;;5025858;28;20053;-74
2021/07/11 04:41:45;;;;;;;5.50;3.33;;;17.80;99.90;;;;;;5027631;28;20112;-74
2021/07/11 04:44:12;;;;;;;7.97;3.45;;;17.80;99.90;;;;;;5027677;28;20485;-74
2021/07/11 04:46:37;;;;;;;8.60;3.88;;;17.80;99.90;;;;;;5027150;28;20074;-74
2021/07/11 04:49:03;;;;;;;6.32;4.05;;;17.80;99.90;;;;;;5025897;28;20041;-74
2021/07/11 04:51:32;;;;;;;6.18;3.88;;;17.80;99.90;;;;;;5025626;28;20097;-74
2021/07/11 04:54:00;;;;;;;6.97;4.10;;;17.80;99.90;;;;;;5026038;28;20045;-74
2021/07/11 04:56:29;;;;;;;5.78;3.90;;;17.80;99.90;;;;;;5026835;28;20055;-74
2021/07/11 04:58:54;;;;;;;6.03;3.80;;;17.90;99.90;;;;;;5025934;28;20033;-74
2021/07/11 05:01:20;;;;;;;6.43;3.90;;;17.90;99.90;;;;;;5025227;28;20033;-74
2021/07/11 05:03:46;;;;;;;9.05;3.80;;;17.90;99.90;;;;;;5027094;28;20037;-74
2021/07/11 05:06:13;;;;;;;6.53;4.18;;;17.90;99.90;;;;;;5024671;28;20029;-74
2021/07/11 05:08:39;;;;;;;5.55;3.40;;;17.90;99.90;;;;;;5027467;28;20025;-74
2021/07/11 05:11:07;;;;;;;7.22;3.92;;;17.90;99.90;;;;;;5026424;28;20095;-74
2021/07/11 05:13:33;;;;;;;7.90;4.45;;;17.90;99.90;;;;;;5025671;28;20037;-74
2021/07/11 05:15:58;;;;;;;6.47;4.35;;;18.00;99.90;;;;;;5024069;28;20444;-74
2021/07/11 05:18:24;;;;;;;6.43;4.10;;;18.00;99.90;;;;;;5027000;28;20033;-73
2021/07/11 05:20:52;;;;;;;5.32;4.00;;;18.00;99.90;;;;;;5025520;28;20443;-74
2021/07/11 05:23:17;;;;;;;7.45;4.00;;;18.00;99.90;;;;;;5025768;28;20039;-74
2021/07/11 05:25:48;;;;;;;7.10;3.83;;;18.00;99.90;;;;;;5026074;28;20025;-74
2021/07/11 05:28:13;;;;;;;9.32;4.60;;;18.00;99.90;;;;;;5022412;28;20037;-74
2021/07/11 05:30:39;;;;;;;6.53;4.70;;;18.00;99.90;;;;;;5025668;28;20113;-73
2021/07/11 05:33:05;;;;;;;5.63;3.92;;;18.00;99.90;;;;;;5025099;28;20175;-73
2021/07/11 05:35:35;;;;;;;7.15;5.05;;;18.00;99.90;;;;;;5025680;28;20548;-73
2021/07/11 05:38:01;;;;;;;5.93;3.97;;;18.00;99.90;;;;;;5026551;28;20033;-73
2021/07/11 05:40:31;;;;;;;10.05;4.78;;;17.90;99.90;;;;;;5025814;28;20044;-73
2021/07/11 05:42:59;;;;;;;5.35;3.95;;;17.90;99.90;;;;;;5023055;28;20025;-73
2021/07/11 05:45:27;;;;;;;6.07;4.20;;;18.00;99.90;;;;;;5025796;28;20026;-73
2021/07/11 05:47:55;;;;;;;6.72;4.57;;;18.00;99.90;;;;;;5026016;28;20037;-73
2021/07/11 05:50:21;;;;;;;11.95;4.53;;;18.00;99.90;;;;;;5026032;28;20032;-73
2021/07/11 05:52:46;;;;;;;12.07;4.15;;;18.00;99.90;;;;;;5026274;28;20037;-74
2021/07/11 05:55:12;;;;;;;9.15;4.57;;;17.90;99.90;;;;;;5025145;28;20394;-73
2021/07/11 05:57:40;;;;;;;6.15;4.32;;;18.00;99.90;;;;;;5025590;28;20123;-73
2021/07/11 06:00:12;;;;;;;6.85;4.47;;;17.90;99.90;;;;;;5024431;28;20037;-73
2021/07/11 06:02:38;;;;;;;7.93;3.70;;;18.00;99.90;;;;;;5026004;28;20100;-73
2021/07/11 06:05:07;;;;;;;7.20;3.65;;;18.00;99.90;;;;;;5023952;28;20163;-73
2021/07/11 06:07:32;;;;;;;5.90;3.90;;;18.00;99.90;;;;;;5025503;28;20041;-73
2021/07/11 06:09:59;;;;;;;6.97;3.83;;;18.00;99.90;;;;;;5025436;28;20541;-73
2021/07/11 06:12:25;;;;;;;6.28;3.95;;;18.00;99.90;;;;;;5025147;28;20029;-73
2021/07/11 06:14:50;;;;;;;7.53;4.10;;;18.00;99.90;;;;;;5024396;28;20710;-73
2021/07/11 06:17:18;;;;;;;6.30;4.35;;;18.00;99.90;;;;;;5025265;28;20031;-73
2021/07/11 06:19:44;;;;;;;6.43;3.85;;;18.10;99.90;;;;;;5026147;28;20065;-73
2021/07/11 06:22:12;;;;;;;8.13;3.97;;;18.00;99.90;;;;;;5029666;28;20105;-73
2021/07/11 06:24:37;;;;;;;5.95;3.17;;;18.00;99.90;;;;;;5024984;28;20026;-73
2021/07/11 06:27:03;;;;;;;9.85;3.65;;;17.90;99.90;;;;;;5023418;28;20769;-73
2021/07/11 06:29:33;;;;;;;8.13;3.42;;;17.90;99.90;;;;;;5025672;28;20454;-73
2021/07/11 06:32:01;;;;;;;5.00;3.58;;;18.00;99.90;;;;;;5026312;28;20356;-73
2021/07/11 06:34:29;;;;;;;4.22;3.10;;;18.00;99.90;;;;;;5025450;28;20048;-73
2021/07/11 06:36:54;;;;;;;9.80;3.65;;;18.00;99.90;;;;;;5025167;28;20072;-73
2021/07/11 06:39:22;;;;;;;5.43;3.88;;;18.00;99.90;;;;;;5025352;28;20116;-73
2021/07/11 06:41:51;;;;;;;12.27;4.15;;;18.00;99.90;;;;;;5025460;28;20096;-73
2021/07/11 06:44:19;;;;;;;7.25;3.80;;;18.00;99.90;;;;;;5025103;28;20033;-73
2021/07/11 06:46:47;;;;;;;14.68;4.50;;;18.00;99.90;;;;;;5023559;28;20211;-73
2021/07/11 06:49:15;;;;;;;7.13;3.88;;;18.10;99.90;;;;;;5024637;28;20037;-73
2021/07/11 06:51:40;;;;;;;7.10;3.47;;;18.10;99.90;;;;;;5026017;28;20041;-73
2021/07/11 06:54:08;;;;;;;6.75;3.75;;;18.10;99.90;;;;;;5025537;28;20034;-73
2021/07/11 06:56:38;;;;;;;5.68;3.90;;;18.10;99.90;;;;;;5025882;28;20085;-73
2021/07/11 06:59:03;;;;;;;5.53;3.95;;;18.10;99.90;;;;;;5025532;28;20037;-72
2021/07/11 07:01:29;;;;;;;7.07;4.13;;;18.10;99.90;;;;;;5025562;28;20060;-73
2021/07/11 07:03:55;;;;;;;6.22;4.20;;;18.10;99.90;;;;;;5023842;28;20029;-73
2021/07/11 07:06:20;;;;;;;9.32;3.70;;;18.00;99.90;;;;;;5024505;28;20090;-73
2021/07/11 07:08:46;;;;;;;6.15;3.40;;;18.00;99.90;;;;;;5027149;28;20145;-73
2021/07/11 07:11:11;;;;;;;5.97;4.00;;;18.00;99.90;;;;;;5029327;28;20524;-73
2021/07/11 07:13:37;;;;;;;6.57;4.03;;;18.00;99.90;;;;;;5029116;28;20037;-73
2021/07/11 07:16:05;;;;;;;7.32;4.13;;;18.00;99.90;;;;;;5027057;28;20060;-73
2021/07/11 07:18:33;;;;;;;6.22;3.95;;;18.00;99.90;;;;;;5027151;28;20040;-73
2021/07/11 07:21:01;;;;;;;6.55;3.65;;;18.00;99.90;;;;;;5027779;28;20751;-73
2021/07/11 07:23:29;;;;;;;6.55;3.70;;;18.00;99.90;;;;;;5010095;28;20038;-73
2021/07/11 07:25:54;;;;;;;7.63;4.13;;;18.10;99.90;;;;;;5027132;28;20029;-73
2021/07/11 07:28:20;;;;;;;6.95;3.75;;;18.10;99.90;;;;;;5028069;28;20479;-73
2021/07/11 07:30:45;;;;;;;8.73;3.70;;;18.10;99.90;;;;;;5027310;28;20108;-73
2021/07/11 07:33:11;;;;;;;5.70;3.40;;;18.10;99.90;;;;;;5027297;28;20029;-73
2021/07/11 07:35:37;;;;;;;5.75;3.60;;;18.10;99.90;;;;;;5026613;28;20068;-72
2021/07/11 07:38:10;;;;;;;5.22;2.65;;;18.20;99.90;;;;;;5027980;28;20041;-72
2021/07/11 07:40:36;;;;;;;5.47;3.17;;;18.10;99.90;;;;;;5027871;28;20068;-73
2021/07/11 07:43:04;;;;;;;6.20;3.33;;;18.20;99.90;;;;;;5027934;28;20120;-73
2021/07/11 07:45:29;;;;;;;8.00;3.20;;;18.20;99.90;;;;;;5031393;28;20033;-73
2021/07/11 07:47:55;;;;;;;6.13;3.15;;;18.20;99.90;;;;;;5012051;28;20043;-73
2021/07/11 07:50:25;;;;;;;6.07;3.22;;;18.20;99.90;;;;;;5027804;28;20048;-73
2021/07/11 07:52:53;;;;;;;7.03;3.45;;;18.20;99.90;;;;;;5027668;28;20124;-73
2021/07/11 07:55:19;;;;;;;5.57;3.00;;;18.20;99.90;;;;;;5028910;28;20557;-73
2021/07/11 07:57:49;;;;;;;6.75;3.47;;;18.20;99.90;;;;;;5027815;28;20060;-73
2021/07/11 08:00:17;;;;;;;6.38;3.70;;;18.30;99.90;;;;;;5028248;28;20064;-73
2021/07/11 08:02:45;;;;;;;5.28;3.33;;;18.20;99.90;;;;;;5027858;28;20018;-73
2021/07/11 08:05:11;;;;;;;5.20;3.65;;;18.30;99.90;;;;;;5027249;28;20029;-73
2021/07/11 08:07:40;;;;;;;5.88;3.70;;;18.20;99.90;;;;;;5059921;28;20029;-72
2021/07/11 08:10:06;;;;;;;5.35;3.90;;;18.20;99.90;;;;;;5011971;28;21840;-72
2021/07/11 08:12:32;;;;;;;4.85;3.70;;;18.20;99.90;;;;;;5025379;28;20057;-72
2021/07/11 08:15:00;;;;;;;5.82;3.70;;;18.20;99.90;;;;;;5028428;28;20144;-72
2021/07/11 08:17:28;;;;;;;7.45;4.63;;;18.20;99.90;;;;;;5027128;28;20065;-72
2021/07/11 08:19:55;;;;;;;5.00;3.80;;;18.20;99.90;;;;;;5027175;28;20590;-72
2021/07/11 08:22:21;;;;;;;5.80;3.85;;;18.20;99.90;;;;;;5042181;28;20056;-74
2021/07/11 08:24:47;;;;;;;5.30;4.00;;;18.20;99.90;;;;;;5026909;28;20109;-72
2021/07/11 08:27:15;;;;;;;6.63;4.85;;;18.20;99.90;;;;;;5024551;28;20055;-73
2021/07/11 08:29:40;;;;;;;6.40;4.88;;;18.10;99.90;;;;;;5027408;28;20037;-72
2021/07/11 08:32:06;;;;;;;6.70;4.90;;;18.00;99.90;;;;;;5025817;28;22030;-73
2021/07/11 08:34:32;;;;;;;7.03;5.40;;;18.00;99.90;;;;;;5025553;28;20464;-72
2021/07/11 08:37:00;;;;;;;6.90;4.93;;;18.00;99.90;;;;;;5016874;28;20581;-72
2021/07/11 08:39:27;;;;;;;8.75;4.95;;;18.10;99.90;;;;;;5026725;28;20351;-72
2021/07/11 08:41:56;;;;;;;7.90;4.72;;;18.00;99.90;;;;;;5026269;28;20111;-72
2021/07/11 08:44:23;;;;;;;8.13;5.43;;;18.20;99.90;;;;;;5027670;28;20058;-72
2021/07/11 08:46:50;;;;;;;7.40;5.03;;;18.20;99.90;;;;;;5042671;28;20035;-72
2021/07/11 08:49:16;;;;;;;7.43;5.30;;;18.30;99.90;;;;;;5027277;28;20120;-72
2021/07/11 08:51:42;;;;;;;6.78;5.15;;;18.30;99.90;;;;;;5024963;28;20040;-72
2021/07/11 08:54:11;;;;;;;7.22;5.00;;;18.30;99.90;;;;;;5009879;28;20049;-72
2021/07/11 08:56:39;;;;;;;6.05;4.22;;;18.40;99.90;;;;;;5057626;28;20053;-72
2021/07/11 08:59:04;;;;;;;5.93;4.30;;;18.50;99.90;;;;;;5025233;28;22014;-70
2021/07/11 09:01:30;;;;;;;7.55;5.43;;;18.60;99.90;;;;;;5024492;28;20040;-70
2021/07/11 09:04:07;;;;;;;8.20;6.40;;;18.60;99.90;;;;;;5024548;28;20039;-72
2021/07/11 09:06:54;;;;;;;7.40;5.50;;;18.70;99.90;;;;;;5024587;28;20171;-72
2021/07/11 09:09:22;;;;;;;7.15;4.75;;;18.70;99.90;;;;;;5007384;28;20033;-72
2021/07/11 09:11:55;;;;;;;6.95;5.35;;;18.80;99.90;;;;;;5026675;28;20100;-72
2021/07/11 09:14:24;;;;;;;5.88;4.32;;;18.90;99.90;;;;;;5026104;28;20136;-72
2021/07/11 09:16:51;;;;;;;6.38;5.43;;;18.80;99.90;;;;;;5025315;28;20103;-72
2021/07/11 09:19:48;;;;;;;6.90;5.15;;;18.90;99.90;;;;;;5026136;28;20035;-72
2021/07/11 09:22:16;;;;;;;8.02;5.95;;;18.90;99.90;;;;;;5025004;28;20053;-68
2021/07/11 09:24:53;;;;;;;7.57;5.55;;;19.00;99.90;;;;;;5026154;28;20036;-68
2021/07/11 09:27:20;;;;;;;6.93;5.18;;;19.10;99.90;;;;;;5022843;28;20029;-68
2021/07/11 09:29:48;;;;;;;7.57;4.60;;;19.20;99.90;;;;;;5024783;28;20029;-68
2021/07/11 09:32:34;;;;;;;6.90;5.55;;;19.20;99.90;;;;;;5026804;28;20030;-68
2021/07/11 09:35:13;;;;;;;6.22;5.15;;;19.30;99.90;;;;;;5025650;28;20040;-68
2021/07/11 09:37:40;;;;;;;6.32;5.10;;;19.30;99.90;;;;;;5024953;28;20467;-68
2021/07/11 09:40:07;;;;;;;7.45;5.07;;;19.50;99.90;;;;;;5025498;28;20034;-68
2021/07/11 09:42:33;;;;;;;5.80;4.95;;;19.50;99.90;;;;;;5026704;28;20036;-68
2021/07/11 09:45:02;;;;;;;7.05;5.20;;;19.30;99.90;;;;;;5024804;28;20029;-68
2021/07/11 09:47:31;;;;;;;6.05;5.00;;;19.40;99.90;;;;;;5025699;28;20025;-68
2021/07/11 09:49:56;;;;;;;7.07;5.28;;;19.40;99.90;;;;;;5025385;28;20024;-68
2021/07/11 09:52:22;;;;;;;6.35;4.95;;;19.40;99.90;;;;;;5026436;28;20022;-71
2021/07/11 09:54:58;;;;;;;6.20;4.90;;;19.40;99.90;;;;;;5026371;28;20026;-69
2021/07/11 09:57:31;;;;;;;7.03;4.55;;;19.50;99.90;;;;;;5025548;28;20129;-69
2021/07/11 10:00:11;;;;;;;6.63;4.45;;;19.40;99.90;;;;;;5026017;28;20041;-71
2021/07/11 10:02:41;;;;;;;6.72;4.30;;;19.30;99.90;;;;;;5024755;28;20126;-68
2021/07/11 10:05:13;;;;;;;5.82;4.78;;;19.20;99.90;;;;;;5026136;28;20033;-68
2021/07/11 10:07:42;;;;;;;6.63;4.63;;;19.20;99.90;;;;;;5024953;28;20110;-68
2021/07/11 10:10:12;;;;;;;6.40;4.47;;;19.30;99.90;;;;;;5008059;28;20048;-68
2021/07/11 10:12:43;;;;;;;5.65;4.00;;;19.40;99.90;;;;;;5025735;28;20355;-68
2021/07/11 10:15:12;;;;;;;6.57;4.82;;;19.50;99.90;;;;;;5024266;28;20029;-68
2021/07/11 10:18:03;;;;;;;6.97;4.22;;;19.60;99.90;;;;;;5024438;28;20036;-68
2021/07/11 10:20:34;;;;;;;5.97;4.20;;;19.60;99.90;;;;;;5009687;28;20116;-68
2021/07/11 10:23:00;;;;;;;7.15;5.22;;;19.60;99.90;;;;;;4990506;28;20090;-68
2021/07/11 10:25:26;;;;;;;6.93;5.13;;;19.70;99.90;;;;;;5007348;28;20029;-68
2021/07/11 10:28:12;;;;;;;6.90;5.28;;;19.60;99.90;;;;;;4998865;28;20083;-68
2021/07/11 10:30:41;;;;;;;10.15;6.00;;;19.60;99.90;;;;;;5025260;28;20601;-69
2021/07/11 10:33:14;;;;;;;6.97;5.95;;;19.60;99.90;;;;;;5024635;28;20029;-68
2021/07/11 10:36:07;;;;;;;8.15;5.53;;;19.60;99.90;;;;;;5023565;28;20059;-68
2021/07/11 10:38:51;;;;;;;7.95;5.70;;;19.70;99.90;;;;;;5042821;28;20029;-68
2021/07/11 10:41:20;;;;;;;7.63;6.65;;;19.70;99.90;;;;;;5023294;28;20771;-68
2021/07/11 10:44:02;;;;;;;9.48;8.10;;;19.70;99.90;;;;;;5027291;28;20026;-68
2021/07/11 10:46:35;;;;;;;10.52;8.35;;;19.70;99.90;;;;;;5029822;28;20086;-68
2021/07/11 10:49:17;;;;;;;10.10;9.00;;;19.80;99.90;;;;;;5029310;28;20049;-68
2021/07/11 10:51:44;;;;;;;10.60;9.32;;;19.80;99.90;;;;;;5029279;28;20033;-68
2021/07/11 10:54:27;;;;;;;11.27;9.35;;;19.90;99.90;;;;;;5028172;28;20114;-68
2021/07/11 10:57:05;;;;;;;11.60;9.52;;;19.90;99.90;;;;;;5027640;28;20055;-68
2021/07/11 10:59:34;;;;;;;10.25;8.80;;;20.00;99.90;;;;;;5029959;28;20025;-68
2021/07/11 11:02:12;;;;;;;10.32;9.15;;;20.00;99.90;;;;;;5028683;28;20036;-68
2021/07/11 11:04:37;;;;;;;11.15;9.95;;;20.00;99.90;;;;;;5012806;28;20032;-68
2021/07/11 11:07:17;;;;;;;11.07;9.70;;;20.00;99.90;;;;;;5029349;28;20033;-68
2021/07/11 11:09:44;;;;;;;10.68;9.57;;;20.10;99.90;;;;;;5027188;28;20044;-68
2021/07/11 11:12:29;;;;;;;9.85;8.85;;;20.10;99.90;;;;;;5027633;28;20057;-68
2021/07/11 11:15:15;;;;;;;10.43;9.30;;;20.00;99.90;;;;;;5011141;28;20371;-68
2021/07/11 11:17:43;;;;;;;11.98;9.95;;;20.10;99.90;;;;;;5029140;28;20026;-68
2021/07/11 11:20:14;;;;;;;12.52;10.07;;;20.20;99.90;;;;;;5024406;28;20036;-69
2021/07/11 11:22:39;;;;;;;11.02;9.93;;;20.30;99.90;;;;;;5028556;28;20091;-68
2021/07/11 11:25:08;;;;;;;13.32;9.70;;;20.40;99.90;;;;;;5028365;28;20043;-68
2021/07/11 11:27:40;;;;;;;10.75;8.98;;;20.50;99.90;;;;;;5028516;28;20115;-68
2021/07/11 11:30:22;;;;;;;10.57;9.48;;;20.60;99.90;;;;;;5028003;28;20021;-73
2021/07/11 11:32:58;;;;;;;10.82;9.30;;;20.60;99.90;;;;;;5028269;28;20025;-73
2021/07/11 11:35:27;;;;;;;11.60;9.25;;;20.70;99.90;;;;;;5027524;28;20501;-68
2021/07/11 11:37:59;;;;;;;9.98;8.98;;;20.70;99.90;;;;;;5028624;28;20043;-68
2021/07/11 11:40:26;;;;;;;11.45;9.48;;;20.70;99.90;;;;;;5027790;28;20033;-68
2021/07/11 11:42:55;;;;;;;9.48;8.13;;;20.70;99.90;;;;;;5027931;28;20247;-68
2021/07/11 11:45:23;;;;;;;10.20;8.68;;;20.70;99.90;;;;;;5028745;28;20443;-68
2021/07/11 11:48:05;;;;;;;9.52;7.97;;;20.70;99.90;;;;;;5016645;28;20029;-68
2021/07/11 11:50:32;;;;;;;9.82;8.80;;;20.60;99.90;;;;;;5027638;28;20034;-68
2021/07/11 11:53:11;;;;;;;10.43;8.65;;;20.40;99.90;;;;;;5028181;28;20159;-68
2021/07/11 11:55:44;;;;;;;9.45;8.45;;;20.30;99.90;;;;;;5026876;28;20715;-68
2021/07/11 11:58:10;;;;;;;9.23;8.32;;;20.30;99.90;;;;;;5027790;28;20050;-68
2021/07/11 12:00:36;;;;;;;11.43;8.90;;;20.20;99.90;;;;;;4680133;28;10000486;-67
2021/07/11 12:03:04;;;;;;;10.20;8.15;;;20.00;99.90;;;;;;5025696;28;20371;-67
2021/07/11 12:05:34;;;;;;;8.95;7.70;;;20.00;99.90;;;;;;5026574;28;21775;-67
2021/07/11 12:08:03;;;;;;;8.75;7.82;;;19.70;99.90;;;;;;5025071;28;20025;-67
2021/07/11 12:10:31;;;;;;;9.10;8.07;;;19.60;99.90;;;;;;5025599;28;20026;-67
2021/07/11 12:13:00;;;;;;;9.10;8.05;;;19.60;99.90;;;;;;5009226;28;20559;-68
2021/07/11 12:15:44;;;;;;;11.25;8.25;;;19.60;99.90;;;;;;5042872;28;20025;-68
2021/07/11 12:18:11;;;;;;;9.43;7.80;;;19.60;99.90;;;;;;5027236;28;20039;-67
2021/07/11 12:20:38;;;;;;;8.30;7.40;;;19.50;99.90;;;;;;5026445;28;20037;-68
2021/07/11 12:23:10;;;;;;;10.35;8.68;;;19.40;99.90;;;;;;5008727;28;20037;-68
2021/07/11 12:25:41;;;;;;;10.02;8.75;;;19.60;99.90;;;;;;5027253;28;20030;-68
2021/07/11 12:28:10;;;;;;;9.68;8.60;;;19.60;99.90;;;;;;5041961;28;20109;-67
2021/07/11 12:30:41;;;;;;;10.55;8.60;;;19.70;99.90;;;;;;5026484;28;20469;-68
2021/07/11 12:33:12;;;;;;;10.50;8.25;;;19.80;99.90;;;;;;5026253;28;20119;-68
2021/07/11 12:35:49;;;;;;;10.90;8.60;;;19.80;99.90;;;;;;5024849;28;20029;-68
2021/07/11 12:38:14;;;;;;;9.10;7.53;;;19.90;99.90;;;;;;5024745;28;20033;-67
2021/07/11 12:40:41;;;;;;;8.90;8.00;;;20.00;99.90;;;;;;5008852;28;20122;-68
2021/07/11 12:43:22;;;;;;;11.18;9.95;;;20.10;99.90;;;;;;5026410;28;20029;-69
2021/07/11 12:46:07;;;;;;;10.63;8.77;;;20.20;99.90;;;;;;5010123;28;20063;-68
2021/07/11 12:48:37;;;;;;;9.50;8.20;;;20.30;99.90;;;;;;5025530;28;20032;-68
2021/07/11 12:51:17;;;;;;;10.73;8.75;;;20.40;99.90;;;;;;5025353;28;20026;-67
2021/07/11 12:53:46;;;;;;;12.85;10.70;;;20.40;99.90;;;;;;5024802;28;20040;-67
2021/07/11 12:56:14;;;;;;;8.65;7.75;;;20.40;99.90;;;;;;5056732;28;20041;-68